createdAt,value
2023-01-03T00:01:51.312Z,3.97
2023-01-03T00:04:17.207Z,2.45
2023-01-03T00:06:47.018Z,3.30
2023-01-03T00:09:14.342Z,1.83
2023-01-03T00:11:59.074Z,4.53
2023-01-03T00:14:26.366Z,1.92
2023-01-03T00:16:53.648Z,1.73
2023-01-03T00:19:20.437Z,4.22
2023-01-03T00:21:46.238Z,2.75
2023-01-03T00:24:12.075Z,4.65
2023-01-03T00:26:39.667Z,3.67
2023-01-03T00:29:05.427Z,5.18
2023-01-03T00:31:31.151Z,5.32
2023-01-03T00:33:56.909Z,4.07
2023-01-03T00:36:22.661Z,2.92
2023-01-03T00:38:48.392Z,2.05
2023-01-03T00:41:15.196Z,4.18
2023-01-03T00:43:42.138Z,4.60
2023-01-03T00:46:08.686Z,4.88
2023-01-03T00:48:34.981Z,2.30
2023-01-03T00:51:11.850Z,2.60
2023-01-03T00:53:38.290Z,2.78
2023-01-03T00:56:05.167Z,3.75
2023-01-03T00:58:31.515Z,6.05
2023-01-03T01:00:57.333Z,3.05
2023-01-03T01:03:23.190Z,3.15
2023-01-03T01:05:49.073Z,2.60
2023-01-03T01:08:14.929Z,4.07
2023-01-03T01:11:01.157Z,8.20
2023-01-03T01:13:33.532Z,2.72
2023-01-03T01:16:03.331Z,3.95
2023-01-03T01:18:29.174Z,2.83
2023-01-03T01:20:54.910Z,3.20
2023-01-03T01:23:20.646Z,3.72
2023-01-03T01:25:46.363Z,3.88
2023-01-03T01:28:12.210Z,3.88
2023-01-03T01:30:37.973Z,5.60
2023-01-03T01:33:04.070Z,4.93
2023-01-03T01:35:29.863Z,9.10
2023-01-03T01:37:56.181Z,3.38
2023-01-03T01:40:21.966Z,5.40
2023-01-03T01:43:06.561Z,3.65
2023-01-03T01:45:34.578Z,3.40
2023-01-03T01:48:06.261Z,5.38
2023-01-03T01:50:37.317Z,4.30
2023-01-03T01:53:03.051Z,5.18
2023-01-03T01:55:37.747Z,4.07
2023-01-03T01:58:04.647Z,6.45
2023-01-03T02:00:30.413Z,8.48
2023-01-03T02:02:56.390Z,3.60
2023-01-03T02:05:22.713Z,3.67
2023-01-03T02:07:50.154Z,6.30
2023-01-03T02:10:16.599Z,4.38
2023-01-03T02:13:00.965Z,8.50
2023-01-03T02:15:26.679Z,3.97
2023-01-03T02:18:17.347Z,3.22
2023-01-03T02:20:45.889Z,3.03
2023-01-03T02:23:20.178Z,3.47
2023-01-03T02:25:55.214Z,4.32
2023-01-03T02:28:39.382Z,3.88
2023-01-03T02:31:11.284Z,4.35
2023-01-03T02:33:42.298Z,6.55
2023-01-03T02:36:20.173Z,3.88
2023-01-03T02:38:49.883Z,2.22
2023-01-03T02:41:34.162Z,4.00
2023-01-03T02:44:05.740Z,3.95
2023-01-03T02:46:39.844Z,4.43
2023-01-03T02:49:07.803Z,9.43
2023-01-03T02:51:45.098Z,4.80
2023-01-03T02:54:13.350Z,5.97
2023-01-03T02:56:49.510Z,2.90
2023-01-03T02:59:17.297Z,6.75
2023-01-03T03:01:44.425Z,6.75
2023-01-03T03:04:11.833Z,3.08
2023-01-03T03:06:56.051Z,5.38
2023-01-03T03:09:21.768Z,11.05
2023-01-03T03:12:06.689Z,4.63
2023-01-03T03:14:34.620Z,5.30
2023-01-03T03:17:03.592Z,6.40
2023-01-03T03:19:54.648Z,4.90
2023-01-03T03:22:52.062Z,9.00
2023-01-03T03:25:21.310Z,3.60
2023-01-03T03:28:07.278Z,2.95
2023-01-03T03:30:34.380Z,2.88
2023-01-03T03:33:05.005Z,2.78
2023-01-03T03:35:32.420Z,3.10
2023-01-03T03:37:59.643Z,4.97
2023-01-03T03:40:46.126Z,4.45
2023-01-03T03:43:39.789Z,9.55
2023-01-03T03:46:05.555Z,4.95
2023-01-03T03:48:56.786Z,2.03
2023-01-03T03:51:24.312Z,4.97
2023-01-03T03:53:51.193Z,6.07
2023-01-03T03:56:18.424Z,5.15
2023-01-03T03:58:46.399Z,4.53
2023-01-03T04:01:14.068Z,7.53
2023-01-03T04:03:41.552Z,3.10
2023-01-03T04:06:09.306Z,6.55
2023-01-03T04:08:35.331Z,5.10
2023-01-03T04:11:07.585Z,5.45
2023-01-03T04:13:34.500Z,3.70
2023-01-03T04:16:00.558Z,5.78
2023-01-03T04:18:26.318Z,5.53
2023-01-03T04:20:52.072Z,3.28
2023-01-03T04:23:17.795Z,9.15
2023-01-03T04:25:43.571Z,5.78
2023-01-03T04:28:09.457Z,4.93
2023-01-03T04:30:35.309Z,6.47
2023-01-03T04:33:04.671Z,6.15
2023-01-03T04:35:31.075Z,3.55
2023-01-03T04:37:57.352Z,5.70
2023-01-03T04:40:23.073Z,7.90
2023-01-03T04:43:07.528Z,6.72
2023-01-03T04:45:33.297Z,4.78
2023-01-03T04:47:59.044Z,3.30
2023-01-03T04:50:24.782Z,6.32
2023-01-03T04:52:50.504Z,6.72
2023-01-03T04:55:16.336Z,5.68
2023-01-03T04:57:42.056Z,5.72
2023-01-03T05:00:08.134Z,5.97
2023-01-03T05:02:34.166Z,8.35
2023-01-03T05:04:59.957Z,5.38
2023-01-03T05:07:29.173Z,4.80
2023-01-03T05:09:55.033Z,5.95
2023-01-03T05:12:20.764Z,8.15
2023-01-03T05:14:46.482Z,5.43
2023-01-03T05:17:12.204Z,9.63
2023-01-03T05:19:57.907Z,7.60
2023-01-03T05:22:41.958Z,5.50
2023-01-03T05:25:27.072Z,6.22
2023-01-03T05:27:52.802Z,5.15
2023-01-03T05:30:18.525Z,7.15
2023-01-03T05:32:44.234Z,5.72
2023-01-03T05:37:54.252Z,7.57
2023-01-03T05:40:34.919Z,9.18
2023-01-03T05:45:51.147Z,5.75
2023-01-03T05:53:41.569Z,10.13
2023-01-03T05:56:08.625Z,9.80
2023-01-03T05:58:34.362Z,11.40
2023-01-03T06:01:06.932Z,4.00
2023-01-03T06:03:32.669Z,9.98
2023-01-03T06:06:01.498Z,9.80
2023-01-03T06:08:28.979Z,4.78
2023-01-03T06:10:56.777Z,6.57
2023-01-03T06:13:31.840Z,7.38
2023-01-03T06:16:34.339Z,6.03
2023-01-03T06:21:43.611Z,5.15
2023-01-03T06:24:17.082Z,9.02
2023-01-03T06:26:44.825Z,5.05
2023-01-03T06:31:51.339Z,6.57
2023-01-03T06:34:18.546Z,5.18
2023-01-03T06:36:44.611Z,5.30
2023-01-03T06:44:32.998Z,10.55
2023-01-03T06:47:18.808Z,6.40
2023-01-03T06:50:03.854Z,6.10
2023-01-03T06:53:08.313Z,5.80
2023-01-03T06:55:35.887Z,7.05
2023-01-03T06:58:08.149Z,10.38
2023-01-03T07:00:38.749Z,12.82
2023-01-03T07:05:50.054Z,12.77
2023-01-03T07:08:16.848Z,8.13
2023-01-03T07:10:43.415Z,10.18
2023-01-03T07:19:00.724Z,8.95
2023-01-03T07:21:28.372Z,6.22
2023-01-03T07:26:37.709Z,6.88
2023-01-03T07:29:06.174Z,5.57
2023-01-03T07:31:35.859Z,11.73
2023-01-03T07:34:03.349Z,11.07
2023-01-03T07:36:34.473Z,9.15
2023-01-03T07:39:03.267Z,9.15
2023-01-03T07:41:49.509Z,8.93
2023-01-03T07:44:16.997Z,9.30
2023-01-03T07:46:47.889Z,9.27
2023-01-03T07:49:16.299Z,8.13
2023-01-03T07:51:42.290Z,11.15
2023-01-03T07:56:52.649Z,12.50
2023-01-03T07:59:19.479Z,6.22
2023-01-03T08:01:45.897Z,11.25
2023-01-03T08:04:15.269Z,5.07
2023-01-03T08:06:49.536Z,14.32
2023-01-03T08:09:38.860Z,8.77
2023-01-03T08:12:23.425Z,10.80
2023-01-03T08:14:49.250Z,12.00
2023-01-03T08:17:16.073Z,12.95
2023-01-03T08:19:45.661Z,6.00
2023-01-03T08:22:49.243Z,10.43
2023-01-03T08:25:23.195Z,9.75
2023-01-03T08:27:50.610Z,5.65
2023-01-03T08:30:17.256Z,9.02
2023-01-03T08:32:43.811Z,8.80
2023-01-03T08:35:11.471Z,8.40
2023-01-03T08:37:42.565Z,8.80
2023-01-03T08:40:12.963Z,6.80
2023-01-03T08:42:39.443Z,9.02
2023-01-03T08:45:17.659Z,5.80
2023-01-03T08:47:45.694Z,4.47
2023-01-03T08:50:14.722Z,7.03
2023-01-03T08:52:48.670Z,9.32
2023-01-03T08:55:22.754Z,9.43
2023-01-03T08:57:50.549Z,7.05
2023-01-03T09:00:19.999Z,8.80
2023-01-03T09:02:46.208Z,6.50
2023-01-03T09:05:12.471Z,6.05
2023-01-03T09:07:40.362Z,6.53
2023-01-03T09:10:14.258Z,8.60
2023-01-03T09:12:56.282Z,9.05
2023-01-03T09:18:04.913Z,6.57
2023-01-03T09:20:38.779Z,7.68
2023-01-03T09:26:35.988Z,3.92
2023-01-03T09:29:03.188Z,8.55
2023-01-03T09:31:35.632Z,5.95
2023-01-03T09:34:05.380Z,7.57
2023-01-03T09:51:36.446Z,7.97
2023-01-03T09:57:28.173Z,7.93
2023-01-03T10:00:15.428Z,8.68
2023-01-03T10:03:09.709Z,8.18
2023-01-03T10:05:55.856Z,5.88
2023-01-03T10:11:25.999Z,6.53
2023-01-03T10:14:12.598Z,10.00
2023-01-03T10:16:57.542Z,7.20
2023-01-03T10:19:24.584Z,9.85
2023-01-03T10:22:31.169Z,15.10
2023-01-03T10:31:07.982Z,7.63
2023-01-03T10:36:18.956Z,7.68
2023-01-03T10:38:52.429Z,7.20
2023-01-03T10:41:42.300Z,5.00
2023-01-03T10:44:31.880Z,7.45
2023-01-03T10:47:10.885Z,7.63
2023-01-03T10:49:37.495Z,10.88
2023-01-03T10:52:40.677Z,6.03
2023-01-03T10:55:20.694Z,6.88
2023-01-03T10:58:11.952Z,7.78
2023-01-03T11:00:41.497Z,7.30
2023-01-03T11:06:17.420Z,7.65
2023-01-03T11:08:49.761Z,8.98
2023-01-03T11:14:24.391Z,9.95
2023-01-03T12:10:41.649Z,7.20
2023-01-03T12:13:32.874Z,9.95
2023-01-03T12:22:22.692Z,7.90
2023-01-03T12:24:57.893Z,7.78
2023-01-03T12:27:45.001Z,7.30
2023-01-03T12:33:26.046Z,10.70
2023-01-03T12:41:47.798Z,10.25
2023-01-03T12:44:27.182Z,5.30
2023-01-03T12:50:07.931Z,9.15
2023-01-03T13:01:04.563Z,6.57
2023-01-03T13:03:40.205Z,7.55
2023-01-03T13:06:14.654Z,7.70
2023-01-03T13:12:25.335Z,10.55
2023-01-03T18:07:57.935Z,22.08
2023-01-03T18:10:46.755Z,22.63
2023-01-03T18:52:32.976Z,23.20
2023-01-03T18:54:59.627Z,28.90
2023-01-03T18:57:29.561Z,25.75
2023-01-03T18:59:55.723Z,25.88
2023-01-03T19:02:23.629Z,22.42
2023-01-03T19:04:52.385Z,27.00
2023-01-03T19:07:32.971Z,26.27
2023-01-03T19:15:21.825Z,27.13
2023-01-03T19:20:31.738Z,26.63
2023-01-03T19:25:41.249Z,25.38
2023-01-03T19:28:11.058Z,21.95
2023-01-03T19:33:05.830Z,21.88
2023-01-03T19:35:37.425Z,24.15
2023-01-03T19:38:13.305Z,21.35
2023-01-03T19:40:40.130Z,19.50
2023-01-03T19:43:06.956Z,23.17
2023-01-03T19:45:36.598Z,19.17
2023-01-03T19:48:17.322Z,21.17
2023-01-03T19:53:13.614Z,17.70
2023-01-03T19:55:41.164Z,18.48
2023-01-03T19:58:24.790Z,19.80
2023-01-03T20:00:53.045Z,15.55
2023-01-03T20:03:31.464Z,22.02
2023-01-03T20:06:00.567Z,18.45
2023-01-03T20:08:26.930Z,20.30
2023-01-03T20:10:54.391Z,18.02
2023-01-03T20:13:26.488Z,17.25
2023-01-03T20:16:04.270Z,21.35
2023-01-03T20:18:35.711Z,17.70
2023-01-03T20:21:24.529Z,19.73
2023-01-03T20:23:57.345Z,15.85
2023-01-03T20:26:25.421Z,18.45
2023-01-03T20:28:54.634Z,23.70
2023-01-03T20:31:21.350Z,16.90
2023-01-03T20:33:48.066Z,17.00
2023-01-03T20:36:26.987Z,16.88
2023-01-03T20:39:03.093Z,21.70
2023-01-03T20:41:44.301Z,17.38
2023-01-03T20:44:15.628Z,18.50
2023-01-03T20:46:41.770Z,18.02
2023-01-03T20:49:22.336Z,16.83
2023-01-03T20:51:52.006Z,17.67
2023-01-03T20:54:23.216Z,18.83
2023-01-03T20:56:50.100Z,16.05
2023-01-03T20:59:17.414Z,16.13
2023-01-03T21:01:52.306Z,15.73
2023-01-03T21:04:18.631Z,15.75
2023-01-03T21:06:45.381Z,14.82
2023-01-03T21:09:37.044Z,20.70
2023-01-03T21:12:03.635Z,13.18
2023-01-03T21:14:30.448Z,18.30
2023-01-03T21:16:56.909Z,20.70
2023-01-03T21:19:24.253Z,18.08
2023-01-03T21:21:51.950Z,15.48
2023-01-03T21:24:19.066Z,16.85
2023-01-03T21:26:45.539Z,15.32
2023-01-03T21:29:21.308Z,22.90
2023-01-03T21:31:47.626Z,15.88
2023-01-03T21:37:00.278Z,13.93
2023-01-03T21:39:26.837Z,13.98
2023-01-03T21:42:12.732Z,14.70
2023-01-03T21:44:39.063Z,13.15
2023-01-03T21:47:05.966Z,13.85
2023-01-03T21:49:32.528Z,11.60
2023-01-03T21:51:59.342Z,16.25
2023-01-03T21:57:05.655Z,10.27
2023-01-03T21:59:32.345Z,9.43
2023-01-03T22:02:16.681Z,10.48
2023-01-03T22:04:42.500Z,10.13
2023-01-03T22:07:08.221Z,11.23
2023-01-03T22:09:52.366Z,10.77
2023-01-03T22:12:18.436Z,9.57
2023-01-03T22:14:46.854Z,7.38
2023-01-03T22:22:20.701Z,10.27
2023-01-03T22:24:48.969Z,14.15
2023-01-03T22:29:57.687Z,11.15
2023-01-03T22:32:24.266Z,11.35
2023-01-03T22:34:50.799Z,11.65
2023-01-03T22:37:38.737Z,11.63
2023-01-03T22:40:08.197Z,11.20
2023-01-03T22:42:33.919Z,11.38
2023-01-03T22:44:59.630Z,16.05
2023-01-03T22:47:25.421Z,11.43
2023-01-03T22:49:51.154Z,13.10
2023-01-03T22:52:17.000Z,12.57
2023-01-03T22:54:42.727Z,15.27
2023-01-03T22:57:08.520Z,12.63
2023-01-03T22:59:34.241Z,13.23
2023-01-03T23:02:00.101Z,9.15
2023-01-03T23:04:27.184Z,13.80
2023-01-03T23:06:53.239Z,11.77
2023-01-03T23:09:19.279Z,9.93
2023-01-03T23:12:03.809Z,14.65
2023-01-03T23:14:30.569Z,17.05
2023-01-03T23:16:56.365Z,9.45
2023-01-03T23:19:23.353Z,8.82
2023-01-03T23:21:49.415Z,11.13
2023-01-03T23:24:16.429Z,7.70
2023-01-03T23:26:42.480Z,8.40
2023-01-03T23:29:08.551Z,9.85
2023-01-03T23:31:34.362Z,10.13
2023-01-03T23:34:00.519Z,11.52
2023-01-03T23:36:26.769Z,7.60
2023-01-03T23:38:53.033Z,8.02
2023-01-03T23:41:19.222Z,6.95
2023-01-03T23:43:45.026Z,11.98
2023-01-03T23:46:15.460Z,6.50
2023-01-03T23:48:41.207Z,8.38
2023-01-03T23:51:07.644Z,7.07
2023-01-03T23:53:37.256Z,8.43
2023-01-03T23:56:07.077Z,18.15
2023-01-03T23:58:32.843Z,9.37
